Agawam, MA (01001)

5:46 PM EDT on September 02, 2014 (GMT -0400)
Downtown | Change Station
CLOSE
Current Station
Personal Weather Station
Location: Springfield, MA
Elevation: 118 ft
Nearby Weather Stations

Elev 118 ft 42.10 °N, 72.59 °W | Updated 41 minutes ago

Mostly Cloudy
Mostly Cloudy
93.4 °F
Feels Like 102 °F
N
4.0
Wind Variable Wind from WSW
Gusts 4.0 mph

Today
High -- | Low -- °F
--% Chance of Precip.
Yesterday
High -- | Low -- °F
Precip. -- in
6:17 AM 7:22 PM
First Quarter, 55% visible
Pressure 29.78 in
Visibility 10.0 miles
Clouds Mostly Cloudy 4500 ft
Heat Index 102 °F
Dew Point 72 °F
Humidity 51%
Rainfall 0.00 in
Snow Depth Not available.
UV 1 out of 12
Pollen 7.30 out of 12
PM2.5 Good
Flu Activity Not available.
METAR KBAF 022053Z 21010KT 10SM BKN045 33/21 A2979 RMK AO2 LTG DSNT E SLP083 T03280206 56015

More Conditions Fewer Conditions

Pressure 29.78 in
Visibility 10.0 miles
Clouds Mostly Cloudy 4500 ft
Heat Index 102 °F
Dew Point 72 °F
Humidity 51%
Rainfall 0.00 in
Snow Depth Not available.
UV 1 out of 12
Pollen 7.30 out of 12
PM2.5 Good
Flu Activity Not available.
METAR KBAF 022053Z 21010KT 10SM BKN045 33/21 A2979 RMK AO2 LTG DSNT E SLP083 T03280206 56015

More Conditions Fewer Conditions

10-Day Weather Forecast

Almanac

Astronomy

Sep. 02, 2014 Rise Set
Actual Time 6:17 AM EDT 7:22 PM EDT
Civil Twilight 5:48 AM EDT 7:51 PM EDT
Nautical Twilight 5:14 AM EDT 8:25 PM EDT
Astronomical Twilight 4:38 AM EDT 9:01 PM EDT
Moon 2:05 PM EDT No Moon Set
Length of Visible Light 14h 02m
Length of Day
13h 05m
Tomorrow will be 2m 44s shorter.
First Quarter, 55% of the Moon is Illuminated
Today
First Quarter
Sep 8
Full
Sep 15
Last Quarter
Sep 24
New
Oct 1
First Quarter

Today's Extremes

State Highs State Lows

Community

WunderPhotos

Upload Photos

1,749,782 photos uploaded!

Nearby

Air Quality

  Air Quality AQ Index Pollutant
Yesterday Good
OZONE
Yesterday Good
PM2.5
Current Good
PM2.5
Tuesday Moderate
PM2.5
Tuesday Good
OZONE
Wednesday Good
PM2.5
Wednesday Good
OZONE

Snow Depth

Station Depth Elevation
No new snow has been reported.

Earthquake Activity

City Distance Mag. Time & Date
No recent earthquake activity has been reported nearby.
Minimum magnitude displayed is 2.5.

Coastal Water Temperatures

Place Temperature
No Stations Reporting

Nearby Weather Stations